createdAt,value
2017-08-19T10:46:43.160Z,28.00
2017-08-19T10:49:10.704Z,25.60
2017-08-19T10:51:38.763Z,26.60
2017-08-19T10:54:06.302Z,26.70
2017-08-19T10:56:33.990Z,27.30
2017-08-19T10:59:01.515Z,27.90
2017-08-19T11:01:29.058Z,25.40
2017-08-19T11:03:56.591Z,25.00
2017-08-19T11:06:24.154Z,27.80
2017-08-19T11:08:51.806Z,28.90
2017-08-19T11:11:19.357Z,25.20
2017-08-19T11:13:46.891Z,22.90
2017-08-19T11:16:14.430Z,22.80
2017-08-19T11:18:41.965Z,24.10
2017-08-19T11:21:09.502Z,26.50
2017-08-19T11:23:37.031Z,28.10
2017-08-19T11:26:04.654Z,27.80
2017-08-19T11:28:32.182Z,26.80
2017-08-19T11:30:59.732Z,28.50
2017-08-19T11:33:27.268Z,28.00
2017-08-19T11:35:54.824Z,25.80
2017-08-19T11:38:22.355Z,23.60
2017-08-19T11:40:49.920Z,27.20
2017-08-19T11:43:17.459Z,25.00
2017-08-19T11:45:45.027Z,24.50
2017-08-19T11:48:12.581Z,23.80
2017-08-19T11:50:40.132Z,21.80
2017-08-19T11:53:07.668Z,22.90
2017-08-19T11:55:35.267Z,25.30
2017-08-19T11:58:02.806Z,23.40
2017-08-19T12:00:32.253Z,23.60
2017-08-19T12:02:59.806Z,23.50
2017-08-19T12:05:27.343Z,24.70
2017-08-19T12:07:54.909Z,23.00
2017-08-19T12:10:22.447Z,23.00
2017-08-19T12:12:49.999Z,25.70
2017-08-19T12:15:17.656Z,25.00
2017-08-19T12:17:45.214Z,24.90
2017-08-19T12:20:12.738Z,26.30
2017-08-19T12:22:41.056Z,27.30
2017-08-19T12:25:08.587Z,27.40
2017-08-19T12:27:36.147Z,27.00
2017-08-19T12:30:03.679Z,27.40
2017-08-19T12:32:31.222Z,27.20
2017-08-19T12:34:58.756Z,27.40
2017-08-19T12:37:26.319Z,26.40
2017-08-19T12:39:53.847Z,27.60
2017-08-19T12:42:21.394Z,23.60
2017-08-19T12:44:48.955Z,25.30
2017-08-19T12:47:16.494Z,27.60
2017-08-19T12:49:44.060Z,27.40
2017-08-19T12:52:11.586Z,25.60
2017-08-19T12:54:39.137Z,26.30
2017-08-19T12:57:06.672Z,22.80
2017-08-19T12:59:34.232Z,23.00
2017-08-19T13:02:01.779Z,23.10
2017-08-19T13:04:29.344Z,23.80
2017-08-19T13:06:57.671Z,24.20
2017-08-19T13:09:25.228Z,25.90
2017-08-19T13:11:52.762Z,27.00
2017-08-19T13:14:20.343Z,26.80
2017-08-19T13:16:47.873Z,27.70
2017-08-19T13:19:15.436Z,24.80
2017-08-19T13:21:42.971Z,25.80
2017-08-19T13:24:10.514Z,24.60
2017-08-19T13:26:38.056Z,24.50
2017-08-19T13:29:05.654Z,26.40
2017-08-19T13:31:33.215Z,27.10
2017-08-19T13:34:00.739Z,26.50
2017-08-19T13:36:28.288Z,27.60
2017-08-19T13:38:55.815Z,26.90
2017-08-19T13:41:23.379Z,26.50
2017-08-19T13:43:50.919Z,26.50
2017-08-19T13:46:18.462Z,24.70
2017-08-19T13:48:45.997Z,25.70
2017-08-19T13:51:13.548Z,26.10
2017-08-19T13:53:41.088Z,24.90
2017-08-19T13:56:08.644Z,22.40
2017-08-19T13:58:36.173Z,23.00
2017-08-19T14:01:03.723Z,23.10
2017-08-19T14:03:31.247Z,24.60
2017-08-19T14:05:58.791Z,24.80
2017-08-19T14:08:26.319Z,23.40
2017-08-19T14:10:53.876Z,23.70
2017-08-19T14:13:21.407Z,22.50
2017-08-19T14:15:48.976Z,22.90
2017-08-19T14:18:16.507Z,23.30
2017-08-19T14:20:44.064Z,22.40
2017-08-19T14:23:11.608Z,22.10
2017-08-19T14:25:39.171Z,22.40
2017-08-19T14:28:06.764Z,23.80
2017-08-19T14:30:34.295Z,24.60
2017-08-19T14:33:01.847Z,24.90
2017-08-19T14:35:29.374Z,24.40
2017-08-19T14:37:56.932Z,23.00
2017-08-19T14:40:24.457Z,22.70
2017-08-19T14:42:51.995Z,22.30
2017-08-19T14:45:19.512Z,23.80
2017-08-19T14:47:47.064Z,24.20
2017-08-19T14:50:14.592Z,24.10
2017-08-19T14:52:42.133Z,24.10
2017-08-19T14:55:09.672Z,24.10
2017-08-19T14:57:37.210Z,24.20
2017-08-19T15:00:04.740Z,24.10
2017-08-19T15:02:32.282Z,23.70
2017-08-19T15:04:59.808Z,23.00
2017-08-19T15:07:27.360Z,23.30
2017-08-19T15:09:54.887Z,23.50
2017-08-19T15:12:22.454Z,23.60
2017-08-19T15:14:49.974Z,23.80
2017-08-19T15:17:17.514Z,24.10
2017-08-19T15:19:45.053Z,23.50
2017-08-19T15:22:12.580Z,22.00
2017-08-19T15:24:40.132Z,22.20
2017-08-19T15:27:07.664Z,23.00
2017-08-19T15:29:35.221Z,23.60
2017-08-19T15:32:02.764Z,23.30
2017-08-19T15:34:30.324Z,23.60
2017-08-19T15:36:57.865Z,23.30
2017-08-19T15:39:25.424Z,23.90
2017-08-19T15:41:53.002Z,23.30
2017-08-19T15:44:20.569Z,23.50
2017-08-19T15:46:48.095Z,23.40
2017-08-19T15:49:15.652Z,22.30
2017-08-19T15:51:43.172Z,22.90
2017-08-19T15:54:10.730Z,23.50
2017-08-19T15:56:38.255Z,23.30
2017-08-19T15:59:05.805Z,23.60
2017-08-19T16:01:33.340Z,22.90
2017-08-19T16:04:00.892Z,22.90
2017-08-19T16:06:29.771Z,23.00
2017-08-19T16:08:57.356Z,22.90
2017-08-19T16:11:24.888Z,22.60
2017-08-19T16:13:52.415Z,22.60
2017-08-19T16:16:19.964Z,22.50
2017-08-19T16:18:47.479Z,22.50
2017-08-19T16:21:15.030Z,22.40
2017-08-19T16:23:42.557Z,22.00
2017-08-19T16:26:10.103Z,22.50
2017-08-19T16:28:37.657Z,22.50
2017-08-19T16:31:05.199Z,22.50
2017-08-19T16:33:32.732Z,22.90
2017-08-19T16:36:00.288Z,22.40
2017-08-19T16:38:27.814Z,22.70
2017-08-19T16:40:55.363Z,22.50
2017-08-19T16:43:22.884Z,21.80
2017-08-19T16:45:50.437Z,21.10
2017-08-19T16:48:17.966Z,21.60
2017-08-19T16:50:45.532Z,21.20
2017-08-19T16:53:13.064Z,21.50
2017-08-19T16:55:40.582Z,21.20
2017-08-19T16:58:08.123Z,21.70
2017-08-19T17:00:35.719Z,22.00
2017-08-19T17:03:03.266Z,22.50
2017-08-19T17:05:30.794Z,22.90
2017-08-19T17:07:58.348Z,22.60
2017-08-19T17:10:25.880Z,22.70
2017-08-19T17:12:53.422Z,22.90
2017-08-19T17:15:20.959Z,22.50
2017-08-19T17:17:48.520Z,22.70
2017-08-19T17:20:16.062Z,22.10
2017-08-19T17:22:43.640Z,21.60
2017-08-19T17:25:11.178Z,21.40
2017-08-19T17:27:38.728Z,21.30
2017-08-19T17:30:06.246Z,20.80
2017-08-19T17:32:33.787Z,20.90
2017-08-19T17:35:01.320Z,20.90
2017-08-19T17:37:28.889Z,21.00
2017-08-19T17:39:56.424Z,21.20
2017-08-19T17:42:23.971Z,20.90
2017-08-19T17:44:51.501Z,20.80
2017-08-19T17:47:19.051Z,20.90
2017-08-19T17:49:46.700Z,21.10
2017-08-19T17:52:14.232Z,20.80
2017-08-19T17:54:41.776Z,20.70
2017-08-19T17:57:09.313Z,20.90
2017-08-19T17:59:36.854Z,20.80
2017-08-19T18:02:04.394Z,20.90
2017-08-19T18:04:31.964Z,20.30
2017-08-19T18:06:59.503Z,20.40
2017-08-19T18:09:27.064Z,20.40
2017-08-19T18:11:54.593Z,20.40
2017-08-19T18:14:22.140Z,20.10
2017-08-19T18:16:49.673Z,20.00
2017-08-19T18:19:17.228Z,19.80
2017-08-19T18:21:44.759Z,19.60
2017-08-19T18:24:12.298Z,19.60
2017-08-19T18:26:39.832Z,20.10
2017-08-19T18:29:07.393Z,19.80
2017-08-19T18:31:34.933Z,19.70
2017-08-19T18:34:02.494Z,20.00
2017-08-19T18:36:30.041Z,20.20
2017-08-19T18:38:57.612Z,20.30
2017-08-19T18:41:25.139Z,20.10
2017-08-19T18:43:52.706Z,20.30
2017-08-19T18:46:20.260Z,20.30
2017-08-19T18:48:47.793Z,20.10
2017-08-19T18:51:15.351Z,20.00
2017-08-19T18:53:42.879Z,20.10
2017-08-19T18:56:10.431Z,20.10
2017-08-19T18:58:37.979Z,20.00
2017-08-19T19:01:05.547Z,19.60
2017-08-19T19:03:33.082Z,19.70
2017-08-19T19:06:01.408Z,19.40
2017-08-19T19:08:28.930Z,19.40
2017-08-19T19:10:56.471Z,19.10
2017-08-19T19:13:23.999Z,19.10
2017-08-19T19:15:51.552Z,19.10
2017-08-19T19:18:19.087Z,19.00
2017-08-19T19:20:46.642Z,19.40
2017-08-19T19:23:14.180Z,19.40
2017-08-19T19:25:41.751Z,19.10
2017-08-19T19:28:09.285Z,19.20
2017-08-19T19:30:36.816Z,18.90
2017-08-19T19:33:04.372Z,19.10
2017-08-19T19:35:31.903Z,18.90
2017-08-19T19:37:59.456Z,19.20
2017-08-19T19:40:26.983Z,19.20
2017-08-19T19:42:54.533Z,19.20
2017-08-19T19:45:22.073Z,19.00
2017-08-19T19:47:49.620Z,19.30
2017-08-19T19:50:17.149Z,19.40
2017-08-19T19:52:44.701Z,18.80
2017-08-19T19:55:12.236Z,18.40
2017-08-19T19:57:39.819Z,18.40
2017-08-19T20:00:07.346Z,18.20
2017-08-19T20:02:34.890Z,18.70
2017-08-19T20:05:02.437Z,18.60
2017-08-19T20:07:29.988Z,19.00
2017-08-19T20:09:57.519Z,18.20
2017-08-19T20:12:25.065Z,18.00
2017-08-19T20:14:52.599Z,18.40
2017-08-19T20:17:20.150Z,18.80
2017-08-19T20:19:47.692Z,18.50
2017-08-19T20:22:15.220Z,18.20
2017-08-19T20:24:42.767Z,18.00
2017-08-19T20:27:10.292Z,17.70
2017-08-19T20:29:37.834Z,17.60
2017-08-19T20:32:05.361Z,17.60
2017-08-19T20:34:32.899Z,17.70
